createdAt,value
2018-01-13T00:00:29.356Z,71.62
2018-01-13T00:02:57.328Z,64.65
2018-01-13T00:05:24.841Z,74.87
2018-01-13T00:07:52.333Z,65.47
2018-01-13T00:10:19.886Z,70.45
2018-01-13T00:12:47.792Z,69.22
2018-01-13T00:15:15.775Z,62.17
2018-01-13T00:17:43.765Z,68.40
2018-01-13T00:20:11.331Z,67.97
2018-01-13T00:22:38.830Z,64.15
2018-01-13T00:25:06.311Z,62.92
2018-01-13T00:27:33.802Z,69.85
2018-01-13T00:30:01.684Z,73.72
2018-01-13T00:32:29.376Z,69.30
2018-01-13T00:34:56.877Z,70.53
2018-01-13T00:37:24.842Z,64.05
2018-01-13T00:39:52.346Z,70.97
2018-01-13T00:42:20.229Z,66.35
2018-01-13T00:44:47.730Z,68.97
2018-01-13T00:47:15.696Z,72.80
2018-01-13T00:49:43.192Z,73.50
2018-01-13T00:52:10.766Z,76.60
2018-01-13T00:54:38.346Z,80.87
2018-01-13T00:57:05.859Z,70.30
2018-01-13T00:59:33.828Z,66.82
2018-01-13T01:02:01.320Z,69.65
2018-01-13T01:04:28.812Z,62.70
2018-01-13T01:06:56.795Z,65.00
2018-01-13T01:09:24.294Z,63.95
2018-01-13T01:11:52.223Z,85.70
2018-01-13T01:14:19.714Z,69.55
2018-01-13T01:16:47.211Z,57.85
2018-01-13T01:19:14.682Z,74.53
2018-01-13T01:21:42.271Z,63.05
2018-01-13T01:24:09.776Z,65.80
2018-01-13T01:26:37.360Z,56.15
2018-01-13T01:29:04.868Z,60.30
2018-01-13T01:31:32.842Z,60.12
2018-01-13T01:34:00.340Z,63.87
2018-01-13T01:36:27.823Z,65.50
2018-01-13T01:38:55.409Z,65.22
2018-01-13T01:41:22.997Z,66.65
2018-01-13T01:43:51.100Z,64.15
2018-01-13T01:46:18.993Z,61.70
2018-01-13T01:48:46.988Z,59.67
2018-01-13T01:51:14.879Z,61.90
2018-01-13T01:53:42.750Z,56.53
2018-01-13T01:56:10.260Z,63.92
2018-01-13T01:58:38.144Z,56.72
2018-01-13T02:01:06.048Z,54.22
2018-01-13T02:03:33.937Z,57.60
2018-01-13T02:06:02.020Z,54.38
2018-01-13T02:08:29.507Z,54.67
2018-01-13T02:10:57.391Z,53.95
2018-01-13T02:13:24.936Z,49.90
2018-01-13T02:15:52.469Z,53.83
2018-01-13T02:18:20.359Z,58.95
2018-01-13T02:20:48.237Z,55.28
2018-01-13T02:23:15.755Z,51.95
2018-01-13T02:25:43.238Z,54.63
2018-01-13T02:28:11.196Z,50.67
2018-01-13T02:30:39.193Z,50.63
2018-01-13T02:33:06.674Z,53.25
2018-01-13T02:35:34.269Z,54.95
2018-01-13T02:38:01.854Z,54.05
2018-01-13T02:40:29.454Z,56.05
2018-01-13T02:42:57.328Z,59.88
2018-01-13T02:45:24.836Z,55.75
2018-01-13T02:47:52.720Z,53.67
2018-01-13T02:50:20.619Z,52.58
2018-01-13T02:52:48.588Z,47.25
2018-01-13T02:55:16.181Z,57.58
2018-01-13T02:57:43.747Z,51.60
2018-01-13T03:00:11.241Z,54.70
2018-01-13T03:02:38.746Z,57.10
2018-01-13T03:05:06.720Z,55.47
2018-01-13T03:07:34.220Z,49.85
2018-01-13T03:10:02.187Z,57.75
2018-01-13T03:12:29.775Z,46.03
2018-01-13T03:14:57.373Z,54.53
2018-01-13T03:17:24.946Z,44.85
2018-01-13T03:19:52.541Z,47.75
2018-01-13T03:22:20.125Z,49.88
2018-01-13T03:24:47.704Z,52.25
2018-01-13T03:27:15.179Z,53.53
2018-01-13T03:29:42.763Z,51.83
2018-01-13T03:32:10.247Z,51.08
2018-01-13T03:34:37.847Z,48.38
2018-01-13T03:37:05.337Z,52.42
2018-01-13T03:39:33.224Z,48.30
2018-01-13T03:42:00.733Z,50.12
2018-01-13T03:44:28.220Z,45.30
2018-01-13T03:46:55.723Z,50.90
2018-01-13T03:49:23.275Z,50.00
2018-01-13T03:51:51.165Z,47.15
2018-01-13T03:54:19.122Z,49.55
2018-01-13T03:56:46.718Z,51.10
2018-01-13T03:59:14.207Z,48.65
2018-01-13T04:01:41.782Z,45.75
2018-01-13T04:04:09.293Z,50.45
2018-01-13T04:06:37.175Z,51.17
2018-01-13T04:09:05.150Z,48.42
2018-01-13T04:11:32.636Z,51.40
2018-01-13T04:14:00.140Z,47.38
2018-01-13T04:16:28.125Z,43.40
2018-01-13T04:18:55.665Z,50.80
2018-01-13T04:21:23.192Z,44.95
2018-01-13T04:23:50.667Z,44.10
2018-01-13T04:26:18.243Z,48.78
2018-01-13T04:28:45.722Z,40.75
2018-01-13T04:31:13.228Z,50.05
2018-01-13T04:33:40.717Z,45.17
2018-01-13T04:36:08.228Z,37.75
2018-01-13T04:38:35.768Z,40.90
2018-01-13T04:41:03.293Z,43.90
2018-01-13T04:43:30.778Z,43.50
2018-01-13T04:45:58.264Z,44.85
2018-01-13T04:48:25.804Z,38.75
2018-01-13T04:50:53.296Z,41.90
2018-01-13T04:53:21.426Z,47.20
2018-01-13T04:55:48.891Z,39.15
2018-01-13T04:58:16.791Z,37.15
2018-01-13T05:00:44.280Z,37.47
2018-01-13T05:03:11.788Z,34.65
2018-01-13T05:05:39.266Z,38.30
2018-01-13T05:08:06.987Z,35.05
2018-01-13T05:10:34.580Z,35.92
2018-01-13T05:13:02.071Z,37.42
2018-01-13T05:15:29.563Z,33.70
2018-01-13T05:17:57.448Z,32.72
2018-01-13T05:20:25.036Z,32.38
2018-01-13T05:22:52.527Z,34.45
2018-01-13T05:25:20.747Z,27.85
2018-01-13T05:27:48.293Z,33.40
2018-01-13T05:30:15.790Z,32.75
2018-01-13T05:32:43.673Z,28.92
2018-01-13T05:35:11.193Z,30.00
2018-01-13T05:37:38.684Z,29.95
2018-01-13T05:40:06.215Z,27.00
2018-01-13T05:42:33.693Z,31.83
2018-01-13T05:45:01.300Z,29.25
2018-01-13T05:47:29.201Z,33.70
2018-01-13T05:49:57.084Z,28.62
2018-01-13T05:52:25.003Z,28.65
2018-01-13T05:54:53.233Z,27.83
2018-01-13T05:57:20.752Z,26.80
2018-01-13T05:59:48.247Z,27.45
2018-01-13T06:02:16.333Z,29.00
2018-01-13T06:04:43.818Z,26.05
2018-01-13T06:07:11.313Z,29.12
2018-01-13T06:09:39.216Z,25.65
2018-01-13T06:12:06.781Z,25.95
2018-01-13T06:14:34.284Z,24.15
2018-01-13T06:17:02.252Z,27.95
2018-01-13T06:19:29.831Z,29.55
2018-01-13T06:21:57.314Z,26.15
2018-01-13T06:24:24.909Z,26.50
2018-01-13T06:26:52.390Z,25.65
2018-01-13T06:29:19.905Z,24.48
2018-01-13T06:31:47.404Z,26.37
2018-01-13T06:34:14.883Z,27.65
2018-01-13T06:36:42.390Z,24.65
2018-01-13T06:39:09.881Z,29.12
2018-01-13T06:41:37.386Z,23.40
2018-01-13T06:44:04.958Z,25.20
2018-01-13T06:46:32.463Z,28.33
2018-01-13T06:49:00.042Z,25.33
2018-01-13T06:51:27.614Z,28.08
2018-01-13T06:53:55.222Z,28.27
2018-01-13T06:56:22.797Z,27.77
2018-01-13T06:58:50.280Z,27.40
2018-01-13T07:01:17.758Z,25.90
2018-01-13T07:03:45.255Z,26.85
2018-01-13T07:06:13.126Z,29.95
2018-01-13T07:08:40.623Z,27.80
2018-01-13T07:11:08.208Z,32.70
2018-01-13T07:13:35.774Z,37.05
2018-01-13T07:16:03.259Z,46.08
2018-01-13T07:18:30.777Z,41.70
2018-01-13T07:20:58.679Z,50.20
2018-01-13T07:23:26.219Z,29.75
2018-01-13T07:25:53.714Z,34.53
2018-01-13T07:28:21.382Z,29.87
2018-01-13T07:30:48.860Z,33.10
2018-01-13T07:33:16.352Z,27.83
2018-01-13T07:35:43.950Z,29.35
2018-01-13T07:38:11.432Z,28.62
2018-01-13T07:40:38.940Z,31.25
2018-01-13T07:43:06.827Z,27.27
2018-01-13T07:45:34.712Z,31.05
2018-01-13T07:48:02.695Z,28.58
2018-01-13T07:50:30.201Z,33.20
2018-01-13T07:52:58.172Z,29.73
2018-01-13T07:55:25.746Z,33.97
2018-01-13T07:57:53.241Z,27.30
2018-01-13T08:00:20.953Z,28.52
2018-01-13T08:02:48.466Z,27.30
2018-01-13T08:05:15.956Z,28.48
2018-01-13T08:07:43.470Z,33.10
2018-01-13T08:10:10.951Z,32.17
2018-01-13T08:12:38.550Z,31.00
2018-01-13T08:15:06.132Z,35.75
2018-01-13T08:17:33.640Z,31.60
2018-01-13T08:20:01.529Z,30.83
2018-01-13T08:22:29.694Z,30.17
2018-01-13T08:24:57.171Z,28.58
2018-01-13T08:27:24.656Z,29.27
2018-01-13T08:29:52.167Z,26.15
2018-01-13T08:32:20.049Z,25.27
2018-01-13T08:34:47.552Z,24.58
2018-01-13T08:37:15.056Z,24.63
2018-01-13T08:39:42.561Z,26.65
2018-01-13T08:42:10.053Z,24.42
2018-01-13T08:44:37.546Z,24.73
2018-01-13T08:47:05.040Z,27.48
2018-01-13T08:49:32.561Z,22.92
2018-01-13T08:52:00.054Z,23.98
2018-01-13T08:54:27.540Z,23.87
2018-01-13T08:56:55.040Z,26.67
2018-01-13T08:59:22.519Z,27.05
2018-01-13T09:01:50.960Z,25.92
2018-01-13T09:04:18.448Z,21.67
2018-01-13T09:06:45.942Z,22.73
2018-01-13T09:09:13.828Z,21.02
2018-01-13T09:11:41.330Z,21.85
2018-01-13T09:14:09.287Z,22.50
2018-01-13T09:16:36.880Z,23.70
2018-01-13T09:19:04.458Z,23.48
2018-01-13T09:21:31.955Z,26.80
2018-01-13T09:23:59.431Z,25.90
2018-01-13T09:26:26.956Z,24.10
2018-01-13T09:28:54.449Z,22.27
2018-01-13T09:31:21.947Z,24.55
2018-01-13T09:33:49.449Z,20.27
2018-01-13T09:36:16.961Z,21.75
2018-01-13T09:38:44.834Z,19.02
2018-01-13T09:41:12.427Z,17.95
2018-01-13T09:43:40.323Z,17.80
2018-01-13T09:46:07.824Z,18.67
2018-01-13T09:48:35.703Z,18.48
2018-01-13T09:51:03.271Z,16.00
2018-01-13T09:53:30.748Z,18.75
2018-01-13T09:55:58.253Z,16.90
2018-01-13T09:58:25.735Z,18.33
2018-01-13T10:00:53.637Z,17.35
2018-01-13T10:03:21.540Z,17.77
2018-01-13T10:05:49.045Z,17.83
2018-01-13T10:08:16.549Z,22.02
2018-01-13T10:10:44.040Z,23.33
2018-01-13T10:13:11.648Z,17.75
2018-01-13T10:15:39.167Z,18.42
2018-01-13T10:18:07.054Z,16.50
2018-01-13T10:20:34.930Z,17.58
2018-01-13T10:23:02.443Z,17.55
2018-01-13T10:25:29.941Z,13.85
2018-01-13T10:27:57.443Z,15.95
2018-01-13T10:30:24.931Z,19.85
2018-01-13T10:32:52.513Z,18.42
2018-01-13T10:35:20.005Z,20.08
2018-01-13T10:37:47.612Z,20.77
2018-01-13T10:40:15.228Z,17.58
2018-01-13T10:42:42.775Z,20.30
2018-01-13T10:45:10.268Z,15.65
2018-01-13T10:47:38.199Z,15.10
2018-01-13T10:50:05.738Z,15.75
2018-01-13T10:52:33.340Z,17.40
2018-01-13T10:55:02.058Z,19.35
2018-01-13T10:57:30.026Z,22.00
2018-01-13T10:59:57.510Z,19.98
2018-01-13T11:02:25.429Z,19.10
2018-01-13T11:04:53.316Z,17.98
2018-01-13T11:07:21.321Z,11.02
2018-01-13T11:09:49.283Z,15.07
2018-01-13T11:12:16.895Z,14.52
2018-01-13T11:14:44.456Z,15.57
2018-01-13T11:17:12.052Z,14.93
2018-01-13T11:19:39.548Z,15.27
2018-01-13T11:22:07.435Z,14.38
2018-01-13T11:24:34.940Z,13.48
2018-01-13T11:27:02.482Z,12.63
2018-01-13T11:29:29.981Z,15.60
2018-01-13T11:31:57.957Z,11.63
2018-01-13T11:34:25.528Z,15.93
2018-01-13T11:36:53.006Z,15.05
2018-01-13T11:39:20.504Z,14.00
2018-01-13T11:41:47.983Z,13.40
2018-01-13T11:44:15.479Z,14.93
2018-01-13T11:46:42.974Z,17.85
2018-01-13T11:49:10.876Z,12.00
2018-01-13T11:51:38.377Z,15.95
2018-01-13T11:54:05.921Z,13.05
2018-01-13T11:56:33.800Z,15.73
2018-01-13T11:59:01.382Z,13.20
2018-01-13T12:01:28.863Z,11.88
2018-01-13T12:03:56.479Z,11.90
2018-01-13T12:06:24.366Z,13.07
2018-01-13T12:08:51.859Z,12.60
2018-01-13T12:11:19.821Z,12.95
2018-01-13T12:13:47.315Z,11.82
2018-01-13T12:16:14.792Z,13.38
2018-01-13T12:18:42.292Z,12.93
2018-01-13T12:21:10.289Z,16.62
2018-01-13T12:23:38.209Z,11.20
2018-01-13T12:26:05.756Z,14.05
2018-01-13T12:28:33.259Z,15.30
2018-01-13T12:31:01.140Z,8.93
2018-01-13T12:33:29.027Z,12.88
2018-01-13T12:35:56.904Z,13.07
2018-01-13T12:38:24.487Z,12.77
2018-01-13T12:40:52.059Z,16.15
2018-01-13T12:43:19.646Z,16.50
2018-01-13T12:45:47.148Z,15.30
2018-01-13T12:48:14.660Z,13.13
2018-01-13T12:50:42.203Z,14.10
2018-01-13T12:53:09.714Z,16.15
2018-01-13T12:55:37.685Z,14.00
2018-01-13T12:58:05.176Z,20.67
2018-01-13T13:00:33.076Z,11.93
2018-01-13T13:03:01.047Z,10.80
2018-01-13T13:05:28.557Z,9.55
2018-01-13T13:07:56.431Z,14.48
2018-01-13T13:10:23.932Z,14.40
2018-01-13T13:12:51.805Z,12.05
2018-01-13T13:15:19.286Z,11.88
2018-01-13T13:17:46.758Z,14.90
2018-01-13T13:20:14.338Z,12.77
2018-01-13T13:22:41.815Z,11.85
2018-01-13T13:25:09.406Z,10.02
2018-01-13T13:27:36.878Z,9.60
2018-01-13T13:30:04.492Z,12.60
2018-01-13T13:32:31.984Z,10.82
2018-01-13T13:34:59.877Z,11.88
2018-01-13T13:37:28.082Z,12.50
2018-01-13T13:39:55.981Z,10.75
2018-01-13T13:42:23.862Z,11.02
2018-01-13T13:44:51.760Z,11.15
2018-01-13T13:47:19.637Z,13.55
2018-01-13T13:49:47.241Z,11.90
2018-01-13T13:52:14.730Z,13.00
2018-01-13T13:54:42.618Z,11.63
2018-01-13T13:57:10.579Z,12.45
2018-01-13T13:59:38.176Z,13.77
2018-01-13T14:02:05.675Z,12.85
2018-01-13T14:04:33.638Z,16.55
2018-01-13T14:07:01.118Z,24.65
2018-01-13T14:09:28.619Z,13.62
2018-01-13T14:11:56.190Z,15.50
2018-01-13T14:14:23.776Z,39.80
2018-01-13T14:16:51.242Z,10.82
2018-01-13T14:19:18.719Z,20.98
2018-01-13T14:21:46.224Z,18.50
2018-01-13T14:24:13.713Z,14.95
2018-01-13T14:26:41.207Z,16.87
2018-01-13T14:29:08.682Z,20.50
2018-01-13T14:31:36.264Z,23.05
2018-01-13T14:34:03.748Z,13.65
2018-01-13T14:36:31.252Z,22.20
2018-01-13T14:38:59.122Z,34.22
2018-01-13T14:41:26.650Z,15.95
2018-01-13T14:43:54.188Z,13.93
2018-01-13T14:46:21.770Z,14.30
2018-01-13T14:48:49.261Z,17.58
2018-01-13T14:51:16.844Z,15.60
2018-01-13T14:53:44.341Z,14.13
2018-01-13T14:56:12.349Z,15.23
2018-01-13T14:58:40.315Z,12.80
2018-01-13T15:01:07.810Z,12.15
2018-01-13T15:03:35.292Z,14.07
2018-01-13T15:06:03.193Z,11.38
2018-01-13T15:08:31.264Z,13.88
2018-01-13T15:10:58.773Z,13.70
2018-01-13T15:13:26.660Z,14.65
2018-01-13T15:15:54.553Z,17.33
2018-01-13T15:18:22.451Z,15.88
2018-01-13T15:20:50.432Z,12.18
2018-01-13T15:23:18.002Z,15.75
2018-01-13T15:25:45.503Z,17.02
2018-01-13T15:28:12.997Z,16.10
2018-01-13T15:30:41.201Z,18.17
2018-01-13T15:33:09.075Z,15.00
2018-01-13T15:35:36.654Z,16.90
2018-01-13T15:38:04.135Z,16.67
2018-01-13T15:40:31.710Z,15.10
2018-01-13T15:42:59.187Z,15.80
2018-01-13T15:45:26.684Z,15.93
2018-01-13T15:47:54.196Z,15.35
2018-01-13T15:50:21.756Z,14.93
2018-01-13T15:52:49.253Z,13.02
2018-01-13T15:55:17.126Z,15.60
2018-01-13T15:57:45.049Z,17.70
2018-01-13T16:00:12.531Z,15.07
2018-01-13T16:02:40.420Z,16.08
2018-01-13T16:05:08.387Z,23.42
2018-01-13T16:07:35.910Z,19.65
2018-01-13T16:10:03.405Z,17.37
2018-01-13T16:12:30.916Z,16.40
2018-01-13T16:14:58.405Z,16.17
2018-01-13T16:17:25.912Z,19.23
2018-01-13T16:19:53.386Z,18.00
2018-01-13T16:22:20.879Z,18.23
2018-01-13T16:24:48.456Z,19.73
2018-01-13T16:27:15.950Z,16.67
2018-01-13T16:29:43.833Z,19.65
2018-01-13T16:32:11.331Z,18.70
2018-01-13T16:34:39.295Z,20.58
2018-01-13T16:37:06.887Z,18.05
2018-01-13T16:39:34.362Z,18.20
2018-01-13T16:42:01.877Z,18.40
2018-01-13T16:44:29.755Z,19.62
2018-01-13T16:46:57.296Z,19.98
2018-01-13T16:49:24.808Z,21.30
2018-01-13T16:51:52.426Z,19.52
2018-01-13T16:54:20.302Z,20.02
2018-01-13T16:56:47.897Z,20.02
2018-01-13T16:59:15.867Z,18.05
2018-01-13T17:01:43.487Z,22.67
2018-01-13T17:04:11.457Z,19.08
2018-01-13T17:06:38.982Z,21.00
2018-01-13T17:09:06.495Z,17.52
2018-01-13T17:11:34.025Z,16.27
2018-01-13T17:14:01.923Z,18.52
2018-01-13T17:16:29.798Z,18.83
2018-01-13T17:18:57.336Z,18.75
2018-01-13T17:21:24.818Z,14.75
2018-01-13T17:23:52.327Z,17.83
2018-01-13T17:26:19.846Z,19.83
2018-01-13T17:28:47.793Z,16.37
2018-01-13T17:31:15.271Z,13.95
2018-01-13T17:33:42.873Z,17.83
2018-01-13T17:36:10.366Z,16.02
2018-01-13T17:38:37.973Z,14.80
2018-01-13T17:41:05.935Z,20.50
2018-01-13T17:43:33.446Z,16.77
2018-01-13T17:46:01.410Z,17.20
2018-01-13T17:48:28.961Z,14.65
2018-01-13T17:50:56.461Z,18.67
2018-01-13T17:53:24.056Z,20.12
2018-01-13T17:55:51.551Z,14.32
2018-01-13T17:58:19.051Z,16.25
2018-01-13T18:00:46.937Z,16.73
2018-01-13T18:03:14.440Z,13.45
2018-01-13T18:05:42.350Z,15.20
2018-01-13T18:08:09.945Z,16.00
2018-01-13T18:10:37.436Z,15.68
2018-01-13T18:13:04.934Z,17.20
2018-01-13T18:15:32.411Z,18.87
2018-01-13T18:17:59.920Z,15.95
2018-01-13T18:20:27.404Z,15.95
2018-01-13T18:22:54.898Z,19.17
2018-01-13T18:25:22.489Z,15.05
2018-01-13T18:27:50.063Z,19.50
2018-01-13T18:30:17.577Z,14.63
2018-01-13T18:32:45.465Z,15.32
2018-01-13T18:35:13.364Z,15.30
2018-01-13T18:37:41.250Z,16.27
2018-01-13T18:40:09.139Z,27.25
2018-01-13T18:42:37.011Z,24.17
2018-01-13T18:45:04.608Z,33.47
2018-01-13T18:47:32.197Z,34.42
2018-01-13T18:49:59.771Z,18.20
2018-01-13T18:52:27.383Z,18.95
2018-01-13T18:54:54.956Z,15.45
2018-01-13T18:57:22.846Z,16.25
2018-01-13T18:59:50.346Z,17.33
2018-01-13T19:02:18.218Z,14.00
2018-01-13T19:04:45.729Z,18.98
2018-01-13T19:07:13.225Z,16.37
2018-01-13T19:09:40.777Z,17.45
2018-01-13T19:12:08.654Z,18.70
2018-01-13T19:14:36.182Z,16.42
2018-01-13T19:17:03.681Z,17.70
2018-01-13T19:19:31.208Z,16.30
2018-01-13T19:21:58.793Z,18.87
2018-01-13T19:24:26.386Z,17.60
2018-01-13T19:26:53.969Z,19.12
2018-01-13T19:29:21.478Z,20.98
2018-01-13T19:31:48.972Z,18.42
2018-01-13T19:34:16.529Z,22.10
2018-01-13T19:36:44.422Z,22.65
2018-01-13T19:39:12.400Z,17.42
2018-01-13T19:41:39.888Z,20.62
2018-01-13T19:44:07.794Z,20.48
2018-01-13T19:46:35.768Z,16.23
2018-01-13T19:49:03.548Z,16.62
2018-01-13T19:51:31.144Z,20.20
2018-01-13T19:53:58.684Z,17.98
2018-01-13T19:56:26.209Z,17.98
2018-01-13T19:58:53.740Z,19.85
2018-01-13T20:01:21.249Z,17.42
2018-01-13T20:03:48.818Z,18.45
2018-01-13T20:06:16.315Z,19.45
2018-01-13T20:08:43.809Z,19.92
2018-01-13T20:11:11.399Z,20.77
2018-01-13T20:13:39.117Z,18.42
2018-01-13T20:16:07.083Z,19.05
2018-01-13T20:18:34.576Z,21.30
2018-01-13T20:21:02.074Z,17.83
2018-01-13T20:23:29.652Z,18.40
2018-01-13T20:25:57.223Z,19.92
2018-01-13T20:28:24.841Z,21.65
2018-01-13T20:30:52.354Z,18.58
2018-01-13T20:33:19.916Z,19.23
2018-01-13T20:35:47.414Z,19.95
2018-01-13T20:38:14.967Z,20.80
2018-01-13T20:40:42.859Z,17.67
2018-01-13T20:43:11.048Z,20.10
2018-01-13T20:45:38.510Z,22.25
2018-01-13T20:48:06.112Z,22.92
2018-01-13T20:50:33.613Z,18.08
2018-01-13T20:53:01.565Z,16.10
2018-01-13T20:55:29.069Z,21.50
2018-01-13T20:57:56.745Z,20.77
2018-01-13T21:00:24.252Z,34.85
2018-01-13T21:02:52.221Z,20.95
2018-01-13T21:05:19.724Z,30.30
2018-01-13T21:07:48.800Z,30.12
2018-01-13T21:10:16.298Z,23.05
2018-01-13T21:12:43.894Z,37.28
2018-01-13T21:15:11.488Z,34.67
2018-01-13T21:17:39.041Z,24.70
2018-01-13T21:20:06.544Z,39.60
2018-01-13T21:22:34.139Z,37.10
2018-01-13T21:25:01.615Z,20.95
2018-01-13T21:27:29.118Z,21.75
2018-01-13T21:29:56.994Z,25.98
2018-01-13T21:32:24.584Z,22.55
2018-01-13T21:34:52.158Z,22.67
2018-01-13T21:37:19.669Z,21.73
2018-01-13T21:39:47.572Z,22.35
2018-01-13T21:42:15.481Z,21.85
2018-01-13T21:44:42.977Z,19.05
2018-01-13T21:47:10.502Z,21.80
2018-01-13T21:49:38.097Z,21.65
2018-01-13T21:52:05.579Z,23.83
2018-01-13T21:54:33.165Z,20.75
2018-01-13T21:57:00.667Z,25.23
2018-01-13T21:59:28.567Z,20.05
2018-01-13T22:01:56.125Z,19.92
2018-01-13T22:04:23.699Z,19.67
2018-01-13T22:06:51.239Z,16.87
2018-01-13T22:09:18.743Z,20.23
2018-01-13T22:11:46.260Z,22.05
2018-01-13T22:14:14.244Z,21.20
2018-01-13T22:16:41.727Z,20.77
2018-01-13T22:19:09.436Z,18.00
2018-01-13T22:21:37.311Z,21.10
2018-01-13T22:24:04.783Z,20.23
2018-01-13T22:26:32.371Z,19.05
2018-01-13T22:28:59.961Z,21.30
2018-01-13T22:31:27.458Z,20.55
2018-01-13T22:33:55.344Z,25.62
2018-01-13T22:36:22.923Z,19.42
2018-01-13T22:38:50.420Z,20.62
2018-01-13T22:41:17.987Z,20.92
2018-01-13T22:43:45.503Z,22.02
2018-01-13T22:46:13.250Z,25.25
2018-01-13T22:48:40.730Z,19.77
2018-01-13T22:51:08.213Z,20.50
2018-01-13T22:53:35.808Z,20.20
2018-01-13T22:56:03.392Z,20.92
2018-01-13T22:58:30.975Z,21.55
2018-01-13T23:00:58.563Z,22.48
2018-01-13T23:03:26.059Z,22.00
2018-01-13T23:05:53.556Z,20.52
2018-01-13T23:08:21.456Z,23.17
2018-01-13T23:10:49.017Z,21.87
2018-01-13T23:13:16.600Z,25.20
2018-01-13T23:15:44.097Z,23.35
2018-01-13T23:18:12.187Z,21.52
2018-01-13T23:20:40.074Z,21.02
2018-01-13T23:23:07.569Z,18.77
2018-01-13T23:25:35.459Z,23.08
2018-01-13T23:28:03.440Z,20.67
2018-01-13T23:30:30.948Z,22.25
2018-01-13T23:32:58.444Z,25.85
2018-01-13T23:35:25.952Z,20.73
2018-01-13T23:37:53.426Z,22.45
2018-01-13T23:40:20.957Z,25.17
2018-01-13T23:42:48.435Z,23.00
2018-01-13T23:45:16.019Z,24.25
2018-01-13T23:47:43.512Z,22.60
2018-01-13T23:50:11.591Z,21.58
2018-01-13T23:52:39.075Z,19.87
2018-01-13T23:55:06.560Z,22.30
2018-01-13T23:57:34.144Z,20.08
